createdAt,value
2018-06-27T00:00:55.503Z,5.33
2018-06-27T00:03:23.065Z,8.73
2018-06-27T00:05:50.576Z,6.40
2018-06-27T00:08:18.102Z,7.70
2018-06-27T00:10:45.625Z,6.30
2018-06-27T00:13:13.145Z,5.53
2018-06-27T00:15:40.687Z,8.17
2018-06-27T00:18:08.502Z,5.70
2018-06-27T00:20:36.036Z,7.92
2018-06-27T00:23:03.612Z,6.30
2018-06-27T00:25:31.118Z,5.53
2018-06-27T00:27:58.680Z,6.37
2018-06-27T00:30:26.218Z,6.00
2018-06-27T00:32:53.863Z,6.10
2018-06-27T00:35:21.360Z,5.87
2018-06-27T00:37:48.906Z,6.10
2018-06-27T00:40:16.485Z,9.00
2018-06-27T00:42:44.021Z,7.33
2018-06-27T00:45:11.524Z,5.87
2018-06-27T00:47:38.979Z,6.63
2018-06-27T00:50:06.561Z,6.63
2018-06-27T00:52:34.109Z,7.10
2018-06-27T00:55:01.609Z,6.60
2018-06-27T00:57:29.141Z,7.60
2018-06-27T00:59:56.648Z,6.73
2018-06-27T01:02:24.149Z,6.83
2018-06-27T01:04:51.685Z,6.27
2018-06-27T01:07:19.189Z,6.20
2018-06-27T01:09:46.724Z,7.60
2018-06-27T01:12:14.236Z,7.10
2018-06-27T01:14:41.785Z,5.87
2018-06-27T01:17:09.316Z,7.40
2018-06-27T01:19:36.896Z,6.60
2018-06-27T01:22:04.420Z,6.27
2018-06-27T01:24:31.974Z,6.00
2018-06-27T01:26:59.487Z,5.47
2018-06-27T01:29:27.061Z,5.20
2018-06-27T01:31:54.612Z,7.57
2018-06-27T01:34:22.188Z,6.03
2018-06-27T01:36:49.715Z,5.73
2018-06-27T01:40:41.758Z,5.30
2018-06-27T01:43:09.288Z,5.33
2018-06-27T01:45:36.800Z,7.53
2018-06-27T01:48:04.586Z,5.43
2018-06-27T01:50:32.011Z,6.07
2018-06-27T01:52:59.516Z,6.50
2018-06-27T01:55:27.095Z,6.53
2018-06-27T01:57:54.624Z,6.30
2018-06-27T02:00:22.149Z,7.70
2018-06-27T02:02:49.652Z,5.77
2018-06-27T02:05:17.183Z,7.43
2018-06-27T02:07:44.701Z,5.20
2018-06-27T02:10:12.267Z,5.93
2018-06-27T02:12:39.777Z,5.77
2018-06-27T02:15:07.320Z,6.30
2018-06-27T02:17:34.972Z,7.43
2018-06-27T02:20:02.572Z,6.30
2018-06-27T02:22:30.100Z,8.63
2018-06-27T02:24:57.629Z,6.63
2018-06-27T02:27:25.789Z,6.93
2018-06-27T02:29:53.292Z,6.10
2018-06-27T02:32:20.933Z,6.60
2018-06-27T02:34:48.475Z,7.73
2018-06-27T02:37:16.000Z,6.73
2018-06-27T02:39:43.559Z,8.43
2018-06-27T02:42:11.098Z,5.47
2018-06-27T02:44:38.628Z,7.30
2018-06-27T02:47:06.221Z,6.77
2018-06-27T02:49:33.759Z,6.00
2018-06-27T02:52:01.289Z,6.20
2018-06-27T02:55:01.885Z,6.43
2018-06-27T02:57:29.449Z,5.37
2018-06-27T02:59:56.998Z,8.57
2018-06-27T03:02:24.589Z,7.70
2018-06-27T03:04:52.089Z,6.40
2018-06-27T03:07:19.631Z,6.93
2018-06-27T03:09:47.169Z,6.77
2018-06-27T03:12:14.716Z,6.80
2018-06-27T03:14:42.267Z,5.97
2018-06-27T03:17:09.882Z,9.80
2018-06-27T03:19:37.413Z,7.73
2018-06-27T03:22:05.146Z,7.63
2018-06-27T03:24:32.673Z,6.03
2018-06-27T03:27:00.212Z,6.80
2018-06-27T03:30:18.479Z,5.07
2018-06-27T03:32:46.052Z,6.63
2018-06-27T03:35:13.580Z,7.67
2018-06-27T03:37:41.122Z,9.53
2018-06-27T03:40:08.641Z,7.13
2018-06-27T03:42:36.181Z,9.10
2018-06-27T03:45:03.818Z,8.93
2018-06-27T03:47:31.369Z,6.83
2018-06-27T03:49:58.880Z,7.90
2018-06-27T03:52:26.471Z,6.57
2018-06-27T03:54:53.992Z,7.00
2018-06-27T03:57:21.530Z,6.00
2018-06-27T03:59:49.960Z,7.60
2018-06-27T04:02:17.508Z,6.73
2018-06-27T04:04:45.080Z,8.43
2018-06-27T04:07:12.616Z,9.00
2018-06-27T04:09:40.124Z,4.93
2018-06-27T04:12:07.671Z,6.60
2018-06-27T04:14:35.195Z,8.70
2018-06-27T04:17:02.737Z,7.50
2018-06-27T04:19:30.285Z,7.50
2018-06-27T04:21:57.847Z,6.03
2018-06-27T04:24:25.412Z,7.07
2018-06-27T04:26:52.965Z,8.47
2018-06-27T04:29:20.560Z,8.60
2018-06-27T04:31:48.099Z,6.73
2018-06-27T04:34:15.649Z,7.03
2018-06-27T04:36:43.238Z,10.23
2018-06-27T04:39:11.688Z,5.80
2018-06-27T04:41:39.632Z,5.50
2018-06-27T04:44:07.439Z,5.80
2018-06-27T04:46:35.989Z,7.33
2018-06-27T04:49:03.783Z,6.63
2018-06-27T04:51:31.333Z,5.27
2018-06-27T04:53:59.087Z,6.57
2018-06-27T04:56:26.653Z,6.57
2018-06-27T04:58:54.214Z,5.93
2018-06-27T05:01:21.779Z,10.27
2018-06-27T05:03:49.334Z,9.73
2018-06-27T05:06:16.880Z,6.97
2018-06-27T05:08:44.417Z,7.80
2018-06-27T05:11:11.883Z,8.97
2018-06-27T05:13:39.401Z,7.30
2018-06-27T05:16:06.969Z,7.67
2018-06-27T05:18:34.501Z,7.47
2018-06-27T05:21:02.054Z,7.73
2018-06-27T05:23:29.568Z,7.40
2018-06-27T05:25:57.053Z,7.90
2018-06-27T05:28:24.652Z,8.20
2018-06-27T05:30:52.220Z,6.67
2018-06-27T05:33:20.035Z,7.23
2018-06-27T05:35:47.645Z,6.92
2018-06-27T05:38:15.256Z,6.80
2018-06-27T05:40:42.914Z,6.23
2018-06-27T05:43:10.645Z,6.23
2018-06-27T05:45:38.320Z,7.97
2018-06-27T05:48:05.968Z,8.80
2018-06-27T05:50:33.832Z,5.93
2018-06-27T05:53:02.223Z,6.77
2018-06-27T05:55:29.772Z,6.43
2018-06-27T05:57:57.364Z,6.63
2018-06-27T06:00:24.925Z,8.57
2018-06-27T06:02:52.485Z,8.07
2018-06-27T06:05:20.420Z,8.33
2018-06-27T06:07:48.028Z,7.30
2018-06-27T06:10:15.593Z,8.27
2018-06-27T06:12:52.643Z,6.90
2018-06-27T06:15:20.181Z,8.58
2018-06-27T06:17:51.672Z,6.97
2018-06-27T06:20:32.565Z,6.83
2018-06-27T06:23:09.064Z,6.57
2018-06-27T06:25:53.284Z,7.40
2018-06-27T06:28:29.235Z,6.97
2018-06-27T06:31:02.681Z,7.33
2018-06-27T06:33:57.465Z,7.13
2018-06-27T06:37:23.595Z,7.73
2018-06-27T06:40:10.933Z,6.23
2018-06-27T06:43:03.909Z,7.42
2018-06-27T06:45:51.451Z,8.13
2018-06-27T06:48:37.159Z,7.47
2018-06-27T06:51:36.616Z,8.33
2018-06-27T06:54:11.866Z,6.63
2018-06-27T06:57:01.004Z,5.90
2018-06-27T06:59:40.808Z,7.27
2018-06-27T07:02:27.048Z,7.77
2018-06-27T07:05:11.153Z,6.57
2018-06-27T07:07:46.070Z,9.47
2018-06-27T07:10:27.156Z,6.97
2018-06-27T07:12:55.341Z,7.03
2018-06-27T07:15:28.967Z,6.40
2018-06-27T07:18:23.441Z,6.53
2018-06-27T07:21:17.337Z,6.47
2018-06-27T07:26:48.385Z,6.83
2018-06-27T07:29:30.202Z,7.60
2018-06-27T07:35:19.252Z,6.63
2018-06-27T07:38:06.086Z,7.33
2018-06-27T07:40:33.757Z,5.77
2018-06-27T07:43:32.680Z,7.83
2018-06-27T07:46:19.500Z,8.23
2018-06-27T07:48:56.433Z,6.13
2018-06-27T07:51:23.980Z,6.00
2018-06-27T07:54:03.316Z,7.00
2018-06-27T07:56:52.484Z,5.47
2018-06-27T07:59:28.069Z,7.27
2018-06-27T08:01:55.620Z,8.73
2018-06-27T08:04:45.352Z,8.60
2018-06-27T08:07:22.936Z,5.83
2018-06-27T08:09:57.070Z,8.40
2018-06-27T08:12:40.860Z,8.73
2018-06-27T08:15:27.257Z,6.60
2018-06-27T08:17:57.512Z,7.47
2018-06-27T08:20:58.965Z,10.83
2018-06-27T08:23:56.353Z,7.43
2018-06-27T08:26:45.988Z,7.60
2018-06-27T08:29:32.089Z,7.00
2018-06-27T08:32:12.976Z,7.13
2018-06-27T08:34:40.597Z,10.23
2018-06-27T08:37:14.428Z,6.03
2018-06-27T08:40:08.098Z,7.43
2018-06-27T08:42:36.712Z,6.30
2018-06-27T08:45:20.964Z,8.03
2018-06-27T08:47:50.458Z,9.13
2018-06-27T08:50:50.947Z,7.77
2018-06-27T08:53:52.849Z,7.63
2018-06-27T08:56:36.733Z,6.70
2018-06-27T08:59:24.582Z,8.60
2018-06-27T09:01:56.328Z,9.80
2018-06-27T09:04:37.589Z,7.03
2018-06-27T09:07:13.368Z,7.40
2018-06-27T09:09:57.293Z,8.03
2018-06-27T09:12:29.783Z,8.50
2018-06-27T09:15:00.443Z,8.40
2018-06-27T09:17:43.064Z,8.63
2018-06-27T09:20:23.173Z,7.17
2018-06-27T09:26:13.016Z,7.30
2018-06-27T09:28:58.640Z,7.67
2018-06-27T09:31:47.700Z,8.13
2018-06-27T09:34:44.732Z,7.40
2018-06-27T09:37:29.779Z,5.17
2018-06-27T09:40:07.363Z,8.40
2018-06-27T09:42:45.986Z,10.17
2018-06-27T09:45:30.217Z,6.37
2018-06-27T09:48:08.024Z,10.23
2018-06-27T09:54:05.793Z,7.57
2018-06-27T09:56:48.784Z,8.63
2018-06-27T10:02:25.712Z,6.63
2018-06-27T10:04:57.072Z,5.57
2018-06-27T10:10:23.106Z,6.60
2018-06-27T10:13:12.227Z,4.87
2018-06-27T10:15:52.197Z,3.10
2018-06-27T10:21:20.293Z,5.63
2018-06-27T10:24:10.014Z,4.30
2018-06-27T10:26:41.294Z,4.17
2018-06-27T10:29:29.151Z,3.30
2018-06-27T10:32:00.307Z,3.80
2018-06-27T10:34:27.894Z,4.27
2018-06-27T10:36:55.524Z,3.50
2018-06-27T10:39:37.775Z,4.63
2018-06-27T10:42:07.683Z,2.70
2018-06-27T10:44:37.385Z,4.40
2018-06-27T10:47:25.279Z,2.83
2018-06-27T10:49:52.896Z,4.77
2018-06-27T10:52:20.633Z,5.17
2018-06-27T10:54:53.720Z,6.57
2018-06-27T10:57:22.133Z,2.13
2018-06-27T10:59:50.991Z,2.80
2018-06-27T11:02:18.747Z,3.07
2018-06-27T11:04:46.929Z,5.70
2018-06-27T11:07:14.474Z,3.30
2018-06-27T11:09:42.009Z,2.17
2018-06-27T11:12:09.453Z,2.70
2018-06-27T11:14:37.001Z,5.43
2018-06-27T11:17:04.756Z,3.57
2018-06-27T11:19:32.325Z,5.17
2018-06-27T11:21:59.832Z,2.03
2018-06-27T11:24:27.724Z,3.53
2018-06-27T11:26:55.346Z,1.83
2018-06-27T11:29:22.904Z,2.13
2018-06-27T11:31:50.612Z,2.90
2018-06-27T11:34:18.465Z,4.60
2018-06-27T11:36:46.001Z,3.37
2018-06-27T11:39:14.267Z,5.57
2018-06-27T11:41:42.685Z,3.50
2018-06-27T11:44:10.429Z,4.13
2018-06-27T11:46:38.024Z,3.40
2018-06-27T11:49:06.430Z,3.50
2018-06-27T11:51:34.289Z,2.83
2018-06-27T11:54:02.131Z,2.33
2018-06-27T11:56:30.245Z,3.13
2018-06-27T11:58:57.830Z,2.87
2018-06-27T12:01:25.635Z,1.80
2018-06-27T12:03:53.352Z,3.83
2018-06-27T12:06:21.054Z,2.53
2018-06-27T12:08:48.774Z,4.17
2018-06-27T12:11:16.808Z,2.73
2018-06-27T12:13:45.077Z,2.60
2018-06-27T12:16:12.850Z,2.90
2018-06-27T12:18:40.498Z,4.13
2018-06-27T12:21:08.190Z,4.20
2018-06-27T12:23:35.813Z,2.53
2018-06-27T12:26:03.527Z,4.20
2018-06-27T12:28:31.393Z,2.57
2018-06-27T12:30:59.021Z,1.60
2018-06-27T12:33:26.954Z,5.53
2018-06-27T12:35:54.642Z,3.27
2018-06-27T12:38:22.401Z,2.63
2018-06-27T12:40:50.131Z,3.37
2018-06-27T12:43:17.686Z,1.77
2018-06-27T12:45:45.300Z,2.67
2018-06-27T12:48:12.904Z,4.30
2018-06-27T12:50:41.568Z,2.73
2018-06-27T12:53:09.301Z,3.27
2018-06-27T12:55:36.975Z,3.03
2018-06-27T12:58:04.776Z,3.57
2018-06-27T13:00:32.461Z,2.63
2018-06-27T13:03:00.990Z,1.97
2018-06-27T13:05:28.790Z,3.60
2018-06-27T13:07:56.405Z,5.17
2018-06-27T13:10:24.049Z,3.67
2018-06-27T13:12:51.849Z,1.90
2018-06-27T13:15:19.472Z,2.67
2018-06-27T13:17:47.069Z,2.63
2018-06-27T13:20:14.713Z,2.90
2018-06-27T13:22:42.308Z,5.63
2018-06-27T13:25:09.993Z,8.90
2018-06-27T13:27:37.724Z,2.97
2018-06-27T13:30:05.756Z,2.60
2018-06-27T13:32:33.519Z,4.17
2018-06-27T13:35:01.320Z,4.20
2018-06-27T13:37:28.865Z,2.87
2018-06-27T13:39:56.423Z,7.67
2018-06-27T13:42:24.081Z,3.63
2018-06-27T13:44:51.673Z,4.03
2018-06-27T13:47:19.306Z,3.43
2018-06-27T13:49:47.411Z,5.03
2018-06-27T13:52:15.094Z,3.57
2018-06-27T13:54:47.131Z,2.80
2018-06-27T13:57:15.559Z,2.90
2018-06-27T13:59:43.130Z,2.50
2018-06-27T14:02:10.724Z,6.40
2018-06-27T14:04:38.622Z,2.37
2018-06-27T14:07:06.276Z,2.70
2018-06-27T14:09:33.830Z,2.13
2018-06-27T14:12:01.512Z,4.90
2018-06-27T14:14:29.156Z,7.30
2018-06-27T14:16:57.121Z,1.63
2018-06-27T14:19:25.667Z,4.23
2018-06-27T14:21:53.291Z,3.80
2018-06-27T14:24:20.908Z,3.37
2018-06-27T14:26:48.566Z,4.97
2018-06-27T14:29:16.173Z,3.80
2018-06-27T14:31:43.768Z,3.33
2018-06-27T14:34:11.304Z,2.10
2018-06-27T14:36:38.985Z,2.60
2018-06-27T14:39:07.928Z,2.10
2018-06-27T14:41:35.777Z,2.87
2018-06-27T14:44:03.641Z,2.43
2018-06-27T14:46:32.189Z,2.43
2018-06-27T14:48:59.753Z,3.73
2018-06-27T14:51:27.434Z,3.20
2018-06-27T14:53:55.116Z,4.00
2018-06-27T14:56:22.715Z,3.23
2018-06-27T14:58:50.504Z,3.63
2018-06-27T15:01:18.214Z,3.17
2018-06-27T15:03:45.810Z,3.90
2018-06-27T15:06:13.457Z,6.03
2018-06-27T15:08:41.125Z,3.03
2018-06-27T15:11:08.748Z,4.20
2018-06-27T15:13:37.309Z,3.50
2018-06-27T15:16:04.899Z,3.70
2018-06-27T15:18:32.513Z,5.23
2018-06-27T15:21:00.322Z,4.53
2018-06-27T15:23:27.989Z,4.50
2018-06-27T15:25:55.644Z,5.10
2018-06-27T15:28:23.277Z,3.83
2018-06-27T15:30:51.151Z,3.87
2018-06-27T15:33:18.811Z,3.87
2018-06-27T15:35:46.764Z,4.20
2018-06-27T15:38:14.353Z,3.53
2018-06-27T15:40:41.947Z,3.13
2018-06-27T15:43:09.593Z,3.70
2018-06-27T15:45:37.330Z,5.43
2018-06-27T15:48:05.106Z,4.87
2018-06-27T15:50:32.768Z,4.17
2018-06-27T15:53:01.148Z,3.90
2018-06-27T15:55:28.917Z,3.80
2018-06-27T15:57:56.488Z,3.80
2018-06-27T16:00:24.245Z,3.40
2018-06-27T16:02:51.721Z,3.30
2018-06-27T16:05:19.304Z,4.30
2018-06-27T16:07:47.121Z,4.73
2018-06-27T16:10:14.712Z,4.70
2018-06-27T16:12:42.313Z,4.23
2018-06-27T16:15:09.898Z,3.47
2018-06-27T16:17:37.501Z,3.70
2018-06-27T16:20:05.645Z,3.30
2018-06-27T16:22:33.514Z,4.83
2018-06-27T16:25:01.108Z,3.30
2018-06-27T16:27:28.918Z,3.53
2018-06-27T16:29:56.736Z,5.97
2018-06-27T16:32:24.586Z,3.43
2018-06-27T16:34:53.144Z,3.87
2018-06-27T16:37:20.847Z,4.57
2018-06-27T16:39:48.552Z,4.50
2018-06-27T16:42:16.379Z,3.83
2018-06-27T16:44:44.049Z,3.13
2018-06-27T16:47:12.493Z,2.50
2018-06-27T16:49:40.309Z,3.53
2018-06-27T16:52:08.167Z,1.70
2018-06-27T16:54:36.033Z,4.47
2018-06-27T16:57:04.089Z,3.00
2018-06-27T16:59:31.961Z,2.83
2018-06-27T17:01:59.837Z,4.50
2018-06-27T17:04:28.604Z,3.70
2018-06-27T17:06:56.470Z,1.60
2018-06-27T17:09:24.332Z,2.30
2018-06-27T17:11:52.181Z,1.77
2018-06-27T17:14:20.019Z,2.47
2018-06-27T17:16:47.734Z,1.47
2018-06-27T17:19:15.489Z,1.43
2018-06-27T17:21:43.535Z,1.23
2018-06-27T17:24:11.281Z,1.43
2018-06-27T17:26:39.584Z,2.33
2018-06-27T17:29:07.548Z,3.33
2018-06-27T17:31:35.302Z,2.20
2018-06-27T17:34:02.991Z,3.17
2018-06-27T17:36:31.262Z,3.63
2018-06-27T17:38:59.096Z,2.53
2018-06-27T17:41:27.348Z,1.73
2018-06-27T17:43:55.144Z,2.33
2018-06-27T17:46:22.917Z,1.57
2018-06-27T17:48:50.797Z,2.07
2018-06-27T17:51:18.658Z,2.77
2018-06-27T17:53:46.753Z,2.53
2018-06-27T17:56:15.273Z,1.87
2018-06-27T17:58:42.920Z,3.50
2018-06-27T18:01:10.531Z,3.93
2018-06-27T18:03:38.313Z,1.87
2018-06-27T18:06:06.113Z,1.43
2018-06-27T18:08:34.037Z,6.80
2018-06-27T18:11:01.688Z,2.17
2018-06-27T18:13:30.130Z,1.87
2018-06-27T18:15:57.853Z,1.30
2018-06-27T18:18:25.415Z,2.90
2018-06-27T18:20:52.972Z,1.57
2018-06-27T18:23:20.654Z,3.83
2018-06-27T18:25:48.209Z,1.63
2018-06-27T18:28:15.813Z,1.40
2018-06-27T18:30:43.405Z,1.83
2018-06-27T18:33:10.989Z,2.67
2018-06-27T18:35:38.722Z,2.50
2018-06-27T18:38:06.526Z,1.60
2018-06-27T18:40:34.129Z,1.20
2018-06-27T18:43:01.699Z,1.70
2018-06-27T18:45:29.285Z,1.90
2018-06-27T18:47:56.842Z,2.50
2018-06-27T18:50:24.476Z,6.40
2018-06-27T18:52:52.192Z,2.80
2018-06-27T18:55:19.728Z,2.53
2018-06-27T18:57:47.359Z,1.80
2018-06-27T19:00:14.950Z,3.07
2018-06-27T19:02:42.613Z,2.87
2018-06-27T19:05:10.279Z,2.90
2018-06-27T19:07:37.883Z,2.60
2018-06-27T19:10:06.002Z,2.37
2018-06-27T19:12:33.666Z,3.57
2018-06-27T19:15:01.248Z,4.20
2018-06-27T19:17:28.869Z,1.90
2018-06-27T19:19:56.660Z,1.73
2018-06-27T19:22:24.396Z,3.67
2018-06-27T19:24:51.868Z,1.97
2018-06-27T19:27:19.480Z,3.63
2018-06-27T19:29:47.073Z,2.17
2018-06-27T19:32:14.673Z,1.57
2018-06-27T19:34:42.233Z,2.40
2018-06-27T19:37:09.783Z,3.13
2018-06-27T19:39:37.938Z,4.90
2018-06-27T19:42:05.143Z,3.10
2018-06-27T19:44:32.669Z,3.97
2018-06-27T19:47:00.320Z,1.60
2018-06-27T19:49:27.821Z,3.00
2018-06-27T19:51:55.393Z,2.50
2018-06-27T19:54:22.964Z,2.43
2018-06-27T19:56:50.494Z,3.50
2018-06-27T19:59:18.041Z,1.80
2018-06-27T20:01:45.561Z,3.60
2018-06-27T20:04:13.223Z,1.80
2018-06-27T20:06:40.885Z,2.03
2018-06-27T20:09:09.385Z,3.43
2018-06-27T20:11:36.900Z,3.80
2018-06-27T20:14:04.543Z,3.87
2018-06-27T20:16:32.337Z,2.73
2018-06-27T20:18:59.846Z,3.10
2018-06-27T20:21:27.460Z,2.67
2018-06-27T20:23:54.946Z,2.63
2018-06-27T20:26:22.477Z,2.77
2018-06-27T20:28:50.041Z,3.07
2018-06-27T20:31:17.641Z,3.43
2018-06-27T20:33:45.187Z,3.57
2018-06-27T20:36:12.751Z,3.90
2018-06-27T20:38:40.284Z,2.83
2018-06-27T20:41:07.840Z,2.30
2018-06-27T20:43:35.377Z,2.63
2018-06-27T20:46:02.997Z,4.00
2018-06-27T20:48:30.558Z,3.13
2018-06-27T20:50:58.097Z,3.17
2018-06-27T20:53:25.644Z,3.30
2018-06-27T20:55:53.182Z,3.17
2018-06-27T20:58:20.771Z,3.17
2018-06-27T21:00:48.303Z,3.50
2018-06-27T21:03:15.837Z,3.17
2018-06-27T21:05:43.381Z,3.03
2018-06-27T21:08:11.040Z,4.73
2018-06-27T21:10:38.589Z,3.43
2018-06-27T21:13:06.122Z,3.57
2018-06-27T21:15:33.701Z,3.27
2018-06-27T21:18:01.243Z,4.50
2018-06-27T21:20:28.774Z,3.20
2018-06-27T21:22:56.340Z,4.13
2018-06-27T21:25:23.903Z,7.20
2018-06-27T21:27:51.412Z,3.70
2018-06-27T21:30:18.946Z,3.97
2018-06-27T21:32:46.496Z,3.93
2018-06-27T21:35:14.030Z,4.60
2018-06-27T21:37:41.597Z,5.47
2018-06-27T21:40:09.192Z,6.63
2018-06-27T21:42:36.742Z,3.70
2018-06-27T21:45:04.481Z,4.53
2018-06-27T21:47:32.041Z,4.00
2018-06-27T21:49:59.572Z,5.43
2018-06-27T21:52:27.141Z,4.33
2018-06-27T21:54:54.668Z,4.27
2018-06-27T21:57:22.224Z,4.90
2018-06-27T22:03:06.944Z,6.83
2018-06-27T22:05:34.463Z,5.13
2018-06-27T22:08:02.029Z,5.63
2018-06-27T22:10:29.572Z,6.17
2018-06-27T22:12:57.124Z,4.97
2018-06-27T22:15:24.665Z,5.00
2018-06-27T22:17:52.192Z,5.23
2018-06-27T22:20:19.788Z,6.27
2018-06-27T22:22:47.321Z,4.80
2018-06-27T22:25:14.863Z,6.60
2018-06-27T22:27:42.422Z,5.37
2018-06-27T22:30:09.997Z,5.93
2018-06-27T22:32:37.525Z,6.10
2018-06-27T22:35:05.126Z,5.53
2018-06-27T22:37:32.704Z,5.60
2018-06-27T22:40:00.297Z,6.43
2018-06-27T22:42:27.832Z,6.77
2018-06-27T22:44:55.409Z,5.70
2018-06-27T22:47:22.945Z,6.23
2018-06-27T22:49:50.525Z,6.50
2018-06-27T22:52:18.010Z,6.27
2018-06-27T22:54:45.545Z,7.37
2018-06-27T22:57:13.120Z,7.17
2018-06-27T22:59:40.734Z,6.87
2018-06-27T23:02:08.289Z,6.00
2018-06-27T23:04:35.835Z,6.93
2018-06-27T23:07:03.676Z,6.87
2018-06-27T23:09:31.192Z,6.80
2018-06-27T23:11:58.771Z,9.07
2018-06-27T23:14:26.288Z,7.43
2018-06-27T23:16:53.848Z,7.37
2018-06-27T23:19:21.447Z,7.87
2018-06-27T23:21:49.055Z,7.93
2018-06-27T23:24:17.280Z,9.83
2018-06-27T23:26:44.905Z,7.57
2018-06-27T23:29:12.466Z,7.70
2018-06-27T23:31:39.994Z,7.20
2018-06-27T23:34:07.677Z,7.80
2018-06-27T23:36:35.238Z,8.20
2018-06-27T23:39:03.213Z,8.20
2018-06-27T23:41:30.752Z,8.80
2018-06-27T23:43:58.444Z,7.90
2018-06-27T23:46:25.989Z,7.03
2018-06-27T23:48:53.600Z,8.53
2018-06-27T23:51:21.140Z,7.27
2018-06-27T23:53:48.737Z,7.33
2018-06-27T23:56:16.261Z,9.90
2018-06-27T23:58:43.824Z,10.57
